Time;durP1;ratioP1;P1;durP2;ratioP2;P2;SDS_P1;SDS_P2;PMS_P1;PMS_P2;Temp;Humidity;BMP_temperature;BMP_pressure;BME280_temperature;BME280_humidity;BME280_pressure;Samples;Min_cycle;Max_cycle;Signal;HPM_P1;HPM_P2
2021/03/05 00:01:29;;;;;;;30.00;15.52;;;3.80;99.90;;;;;;5017718;28;20470;-71
2021/03/05 00:04:13;;;;;;;29.00;16.40;;;3.80;99.90;;;;;;5031090;28;20052;-71
2021/03/05 00:06:57;;;;;;;26.98;15.02;;;3.70;99.90;;;;;;5028866;28;20416;-71
2021/03/05 00:09:41;;;;;;;29.73;15.52;;;3.80;99.90;;;;;;5027084;28;20049;-71
2021/03/05 00:12:25;;;;;;;31.60;16.42;;;3.80;99.90;;;;;;5023801;28;20056;-70
2021/03/05 00:15:10;;;;;;;33.33;17.00;;;3.90;99.90;;;;;;5012655;28;20052;-71
2021/03/05 00:17:55;;;;;;;31.35;16.95;;;3.80;99.90;;;;;;5015458;28;20132;-71
2021/03/05 00:20:42;;;;;;;36.53;17.08;;;3.80;99.90;;;;;;5018728;28;20067;-71
2021/03/05 00:23:27;;;;;;;29.92;15.55;;;3.80;99.90;;;;;;5027211;28;20119;-71
2021/03/05 00:26:11;;;;;;;32.13;16.98;;;3.70;99.90;;;;;;5023910;28;20173;-71
2021/03/05 00:28:55;;;;;;;36.65;18.33;;;3.60;99.90;;;;;;5019091;28;20195;-71
2021/03/05 00:31:39;;;;;;;33.72;17.10;;;3.60;99.90;;;;;;5023414;28;20048;-71
2021/03/05 00:34:23;;;;;;;33.97;17.55;;;3.60;99.90;;;;;;5028954;28;20087;-71
2021/03/05 00:37:07;;;;;;;29.67;16.00;;;3.60;99.90;;;;;;5027001;28;20172;-71
2021/03/05 00:39:51;;;;;;;34.55;18.38;;;3.60;99.90;;;;;;5020326;28;20548;-71
2021/03/05 00:42:35;;;;;;;33.67;17.60;;;3.60;99.90;;;;;;5029211;28;20056;-71
2021/03/05 00:45:22;;;;;;;33.38;16.92;;;3.70;99.90;;;;;;5020786;28;20553;-71
2021/03/05 00:48:07;;;;;;;38.42;18.23;;;3.70;99.90;;;;;;5021390;28;20094;-71
2021/03/05 00:50:51;;;;;;;37.47;17.90;;;3.50;99.90;;;;;;5029221;28;20094;-71
2021/03/05 00:53:35;;;;;;;38.00;18.42;;;3.50;99.90;;;;;;5023314;28;20083;-71
2021/03/05 00:56:19;;;;;;;38.63;19.50;;;3.40;99.90;;;;;;5024282;28;20048;-69
2021/03/05 00:59:04;;;;;;;36.63;18.92;;;3.50;99.90;;;;;;5019456;28;20091;-70
2021/03/05 01:01:49;;;;;;;43.88;20.83;;;3.40;99.90;;;;;;5019751;28;20152;-71
2021/03/05 01:04:33;;;;;;;40.85;18.98;;;3.40;99.90;;;;;;5022360;28;20095;-71
2021/03/05 01:07:17;;;;;;;38.13;18.92;;;3.40;99.90;;;;;;5023128;28;20158;-71
2021/03/05 01:10:04;;;;;;;42.33;20.27;;;3.50;99.90;;;;;;5026360;28;20052;-71
2021/03/05 01:12:49;;;;;;;38.58;19.55;;;3.40;99.90;;;;;;5022579;28;20518;-71
2021/03/05 01:15:33;;;;;;;44.28;20.02;;;3.30;99.90;;;;;;5023954;28;20072;-71
2021/03/05 01:18:18;;;;;;;38.47;19.65;;;3.40;99.90;;;;;;5012985;28;20048;-71
2021/03/05 01:21:03;;;;;;;40.97;19.25;;;3.40;99.90;;;;;;5023072;28;20513;-71
2021/03/05 01:23:47;;;;;;;42.00;19.63;;;3.40;99.90;;;;;;5025465;28;20724;-71
2021/03/05 01:26:32;;;;;;;40.13;19.42;;;3.50;99.90;;;;;;5026918;28;20497;-71
2021/03/05 01:29:17;;;;;;;38.83;19.13;;;3.40;99.90;;;;;;5014338;28;20095;-71
2021/03/05 01:32:01;;;;;;;39.40;19.27;;;3.40;99.90;;;;;;5016513;28;20045;-71
2021/03/05 01:34:45;;;;;;;42.28;20.40;;;3.30;99.90;;;;;;5012666;28;20184;-71
2021/03/05 01:37:29;;;;;;;40.45;19.25;;;3.20;99.90;;;;;;5017490;28;20099;-71
2021/03/05 01:40:25;;;;;;;37.17;18.13;;;3.30;99.90;;;;;;5019362;28;20053;-71
2021/03/05 01:43:11;;;;;;;43.22;19.65;;;3.30;99.90;;;;;;5021050;28;20087;-71
2021/03/05 01:45:55;;;;;;;47.58;21.42;;;3.20;99.90;;;;;;5016191;28;20076;-71
2021/03/05 01:48:40;;;;;;;39.45;19.25;;;3.30;99.90;;;;;;5028273;28;20073;-71
2021/03/05 01:51:29;;;;;;;42.53;20.98;;;3.30;99.90;;;;;;5014022;28;20525;-71
2021/03/05 01:54:13;;;;;;;43.95;19.95;;;3.30;99.90;;;;;;5020353;28;20256;-71
2021/03/05 01:56:57;;;;;;;47.92;21.63;;;3.40;99.90;;;;;;5024110;28;20083;-71
2021/03/05 01:59:41;;;;;;;46.65;20.50;;;3.30;99.90;;;;;;5020597;28;20044;-71
2021/03/05 02:02:25;;;;;;;45.20;20.63;;;3.30;99.90;;;;;;5014290;28;20055;-71
2021/03/05 02:05:10;;;;;;;44.72;19.40;;;3.20;99.90;;;;;;5014353;28;20415;-71
2021/03/05 02:07:55;;;;;;;41.55;19.75;;;3.30;99.90;;;;;;5012565;28;20048;-71
2021/03/05 02:10:40;;;;;;;46.22;20.60;;;3.30;99.90;;;;;;5016205;28;20533;-71
2021/03/05 02:13:24;;;;;;;43.35;22.02;;;3.30;99.90;;;;;;5014985;28;20528;-71
2021/03/05 02:16:34;;;;;;;46.42;20.38;;;3.30;99.90;;;;;;5021756;28;20108;-71
2021/03/05 02:19:56;;;;;;;44.33;20.60;;;3.30;99.90;;;;;;5027198;28;20092;-71
2021/03/05 02:23:08;;;;;;;43.55;19.50;;;3.20;99.90;;;;;;5022061;28;20041;-71
2021/03/05 02:26:02;;;;;;;40.50;19.75;;;3.30;99.90;;;;;;5019295;28;20123;-71
2021/03/05 02:28:46;;;;;;;43.20;19.75;;;3.30;99.90;;;;;;5025349;28;20114;-71
2021/03/05 02:31:42;;;;;;;45.53;20.13;;;3.40;99.90;;;;;;5018185;28;20135;-71
2021/03/05 02:34:35;;;;;;;36.05;18.40;;;3.50;99.90;;;;;;5024622;28;20044;-71
2021/03/05 02:37:23;;;;;;;41.25;20.70;;;3.50;99.90;;;;;;5025668;28;20075;-72
2021/03/05 02:40:11;;;;;;;39.45;18.90;;;3.60;99.90;;;;;;5022734;28;20457;-71
2021/03/05 02:43:02;;;;;;;45.80;21.23;;;3.50;99.90;;;;;;5024064;28;20081;-71
2021/03/05 02:46:00;;;;;;;41.88;19.73;;;3.60;99.90;;;;;;5016003;28;20232;-71
2021/03/05 02:48:46;;;;;;;41.38;18.65;;;3.60;99.90;;;;;;5011275;28;20560;-71
2021/03/05 02:51:33;;;;;;;42.47;19.50;;;3.50;99.90;;;;;;5011371;28;20049;-69
2021/03/05 02:54:20;;;;;;;46.25;21.08;;;3.60;99.90;;;;;;5021502;28;20493;-69
2021/03/05 02:57:07;;;;;;;41.80;19.73;;;3.50;99.90;;;;;;5016402;28;20096;-71
2021/03/05 02:59:53;;;;;;;40.88;19.67;;;3.50;99.90;;;;;;5020035;28;20139;-71
2021/03/05 03:02:39;;;;;;;39.53;17.80;;;3.60;99.90;;;;;;5017131;28;20085;-72
2021/03/05 03:05:26;;;;;;;39.70;18.65;;;3.60;99.90;;;;;;5027536;28;20115;-72
2021/03/05 03:08:10;;;;;;;37.97;18.95;;;3.70;99.90;;;;;;5023033;28;20053;-71
2021/03/05 03:10:55;;;;;;;39.75;19.75;;;3.70;99.90;;;;;;5024165;28;20052;-71
2021/03/05 03:13:40;;;;;;;38.97;18.20;;;3.70;99.90;;;;;;5018966;28;20049;-71
2021/03/05 03:16:26;;;;;;;40.03;17.45;;;3.70;99.90;;;;;;5015357;28;20097;-71
2021/03/05 03:19:13;;;;;;;44.05;19.98;;;3.80;99.90;;;;;;5019643;28;20521;-71
2021/03/05 03:21:57;;;;;;;39.63;19.50;;;3.80;99.90;;;;;;5011322;28;20040;-71
2021/03/05 03:24:42;;;;;;;40.45;19.80;;;3.80;99.90;;;;;;5017775;28;20068;-69
2021/03/05 03:27:27;;;;;;;40.90;18.38;;;3.80;99.90;;;;;;5025449;28;20052;-69
2021/03/05 03:30:14;;;;;;;41.58;20.35;;;3.80;99.90;;;;;;5019504;28;20478;-69
2021/03/05 03:32:58;;;;;;;36.83;19.23;;;3.70;99.90;;;;;;5023984;28;20048;-72
2021/03/05 03:35:42;;;;;;;38.22;19.17;;;3.80;99.90;;;;;;5028633;28;20092;-69
2021/03/05 03:38:28;;;;;;;37.45;18.45;;;3.80;99.90;;;;;;5014179;28;20115;-72
2021/03/05 03:41:13;;;;;;;41.58;19.77;;;3.90;99.90;;;;;;5023428;28;20060;-69
2021/03/05 03:43:58;;;;;;;42.17;19.27;;;3.80;99.90;;;;;;5027628;28;20044;-71
2021/03/05 03:46:48;;;;;;;42.67;20.08;;;3.80;99.90;;;;;;5016891;28;20080;-71
2021/03/05 03:49:37;;;;;;;50.53;21.58;;;3.70;99.90;;;;;;5027882;28;20052;-71
2021/03/05 03:52:38;;;;;;;49.25;21.10;;;3.60;99.90;;;;;;5020027;28;20128;-71
2021/03/05 03:55:23;;;;;;;42.60;20.30;;;3.60;99.90;;;;;;5026426;28;20043;-71
2021/03/05 03:58:08;;;;;;;43.92;20.27;;;3.50;99.90;;;;;;5022719;28;20092;-71
2021/03/05 04:00:55;;;;;;;52.47;23.73;;;3.60;99.90;;;;;;5025170;28;20129;-71
2021/03/05 04:03:45;;;;;;;56.65;23.30;;;3.50;99.90;;;;;;5020627;28;20040;-71
2021/03/05 04:06:30;;;;;;;51.88;21.50;;;3.40;99.90;;;;;;5022114;28;20045;-71
2021/03/05 04:09:16;;;;;;;52.22;22.95;;;3.50;99.90;;;;;;5027001;28;20048;-71
2021/03/05 04:12:03;;;;;;;46.65;21.52;;;3.50;99.90;;;;;;5025018;28;20052;-71
2021/03/05 04:14:47;;;;;;;45.58;21.20;;;3.50;99.90;;;;;;5030331;28;20063;-71
2021/03/05 04:17:32;;;;;;;59.30;23.15;;;3.50;99.90;;;;;;5018807;28;20102;-72
2021/03/05 04:20:19;;;;;;;54.00;22.65;;;3.40;99.90;;;;;;5023666;28;20208;-71
2021/03/05 04:23:08;;;;;;;56.25;23.30;;;3.40;99.90;;;;;;5017965;28;20527;-71
2021/03/05 04:25:53;;;;;;;58.88;23.92;;;3.40;99.90;;;;;;5023711;28;20098;-72
2021/03/05 04:28:37;;;;;;;62.70;24.95;;;3.40;99.90;;;;;;5020746;28;20064;-71
2021/03/05 04:31:21;;;;;;;49.15;22.13;;;3.40;99.90;;;;;;5026984;28;20129;-71
2021/03/05 04:34:05;;;;;;;58.30;24.05;;;3.40;99.90;;;;;;5015902;28;20434;-71
2021/03/05 04:36:50;;;;;;;48.88;21.17;;;3.40;99.90;;;;;;5026210;28;20100;-71
2021/03/05 04:39:34;;;;;;;47.45;21.73;;;3.40;99.90;;;;;;5028327;28;20171;-71
2021/03/05 04:42:18;;;;;;;56.25;23.80;;;3.50;99.90;;;;;;5017700;28;20049;-71
2021/03/05 04:45:05;;;;;;;58.47;25.80;;;3.50;99.90;;;;;;5017879;28;20559;-71
2021/03/05 04:47:49;;;;;;;55.28;23.48;;;3.20;99.90;;;;;;5021594;28;20466;-71
2021/03/05 04:50:33;;;;;;;50.63;22.73;;;3.20;99.90;;;;;;5024187;28;20140;-71
2021/03/05 04:53:17;;;;;;;52.83;23.73;;;3.20;99.90;;;;;;5024848;28;20063;-71
2021/03/05 04:56:02;;;;;;;52.28;23.38;;;3.00;99.90;;;;;;5017311;28;20044;-71
2021/03/05 04:58:46;;;;;;;52.17;23.83;;;3.00;99.90;;;;;;5026920;28;20119;-71
2021/03/05 05:01:30;;;;;;;53.72;24.45;;;3.00;99.90;;;;;;5025585;28;20132;-71
2021/03/05 05:04:14;;;;;;;55.90;24.60;;;2.90;99.90;;;;;;5023017;28;20087;-71
2021/03/05 05:06:58;;;;;;;50.63;23.67;;;2.90;99.90;;;;;;5028284;28;20052;-70
2021/03/05 05:09:42;;;;;;;54.33;25.00;;;2.90;99.90;;;;;;5021088;28;20103;-71
2021/03/05 05:12:26;;;;;;;54.28;23.73;;;2.90;99.90;;;;;;5014263;28;20051;-71
2021/03/05 05:15:12;;;;;;;58.38;25.00;;;2.90;99.90;;;;;;5021821;28;20048;-71
2021/03/05 05:17:56;;;;;;;57.60;24.15;;;2.80;99.90;;;;;;5023852;28;20044;-71
2021/03/05 05:20:40;;;;;;;48.75;23.10;;;2.90;99.90;;;;;;5014096;28;20108;-71
2021/03/05 05:23:24;;;;;;;61.95;25.40;;;2.90;99.90;;;;;;5028032;28;20044;-71
2021/03/05 05:26:09;;;;;;;54.95;24.67;;;2.80;99.90;;;;;;5025066;28;20446;-71
2021/03/05 05:28:53;;;;;;;53.30;24.95;;;2.80;99.90;;;;;;5024828;28;20517;-71
2021/03/05 05:31:37;;;;;;;48.55;23.08;;;2.90;99.90;;;;;;5025748;28;20057;-71
2021/03/05 05:34:21;;;;;;;51.03;24.05;;;2.80;99.90;;;;;;5035690;28;20067;-71
2021/03/05 05:37:06;;;;;;;46.90;21.75;;;2.90;99.90;;;;;;5028104;28;20356;-71
2021/03/05 05:39:50;;;;;;;46.50;22.02;;;2.90;99.90;;;;;;5030364;28;20096;-71
2021/03/05 05:42:34;;;;;;;42.88;21.85;;;2.90;99.90;;;;;;5024141;28;20049;-71
2021/03/05 05:45:19;;;;;;;42.50;21.27;;;2.80;99.90;;;;;;5018962;28;20084;-71
2021/03/05 05:48:04;;;;;;;39.95;19.25;;;2.90;99.90;;;;;;5025529;28;20056;-71
2021/03/05 05:50:49;;;;;;;40.78;20.17;;;3.00;99.90;;;;;;5028547;28;20071;-71
2021/03/05 05:53:39;;;;;;;45.10;20.33;;;3.00;99.90;;;;;;5030783;28;20068;-71
2021/03/05 05:56:24;;;;;;;43.03;20.85;;;3.00;99.90;;;;;;5028025;28;20520;-71
2021/03/05 05:59:08;;;;;;;45.97;22.38;;;2.90;99.90;;;;;;5021746;28;20526;-71
2021/03/05 06:01:53;;;;;;;42.40;20.92;;;2.80;99.90;;;;;;5024945;28;20571;-71
2021/03/05 06:04:38;;;;;;;44.50;21.30;;;2.90;99.90;;;;;;5011410;28;20040;-71
2021/03/05 06:07:23;;;;;;;48.10;22.83;;;2.80;99.90;;;;;;5020724;28;20076;-71
2021/03/05 06:10:07;;;;;;;37.72;19.50;;;2.90;99.90;;;;;;5027558;28;20048;-71
2021/03/05 06:12:51;;;;;;;37.38;18.48;;;3.00;99.90;;;;;;5026099;28;20119;-71
2021/03/05 06:15:36;;;;;;;39.95;17.67;;;2.90;99.90;;;;;;5022494;28;20072;-71
2021/03/05 06:18:30;;;;;;;32.78;18.27;;;2.70;99.90;;;;;;5028562;28;20056;-71
2021/03/05 06:21:14;;;;;;;37.72;19.15;;;2.80;99.90;;;;;;5028656;28;20509;-71
2021/03/05 06:24:00;;;;;;;36.60;17.80;;;2.80;99.90;;;;;;5027728;28;20041;-71
2021/03/05 06:26:51;;;;;;;40.15;15.73;;;2.80;99.90;;;;;;5029507;28;20052;-71
2021/03/05 06:29:47;;;;;;;36.70;17.02;;;2.80;99.90;;;;;;5019797;28;20471;-71
2021/03/05 06:32:40;;;;;;;36.17;18.15;;;2.80;99.90;;;;;;5013021;28;20132;-71
2021/03/05 06:35:25;;;;;;;31.43;16.40;;;2.70;99.90;;;;;;5021620;28;20136;-71
2021/03/05 06:38:09;;;;;;;42.58;18.42;;;2.70;99.90;;;;;;5029938;28;20418;-71
2021/03/05 06:41:31;;;;;;;34.42;16.10;;;2.70;99.90;;;;;;5019859;28;20153;-71
2021/03/05 06:44:15;;;;;;;39.30;18.38;;;2.60;99.90;;;;;;5019906;28;20056;-71
2021/03/05 06:47:11;;;;;;;36.30;16.65;;;2.60;99.90;;;;;;5022656;28;20059;-71
2021/03/05 06:49:56;;;;;;;36.05;16.70;;;2.60;99.90;;;;;;5030390;28;20538;-71
2021/03/05 06:52:40;;;;;;;27.90;15.43;;;2.60;99.90;;;;;;5021391;28;20123;-71
2021/03/05 06:55:24;;;;;;;37.03;16.20;;;2.60;99.90;;;;;;5026995;28;20378;-71
2021/03/05 06:58:09;;;;;;;28.88;14.23;;;2.60;99.90;;;;;;5027215;28;20462;-71
2021/03/05 07:01:03;;;;;;;36.03;17.35;;;2.70;99.90;;;;;;5026289;28;20080;-71
2021/03/05 07:04:06;;;;;;;38.03;16.63;;;2.80;99.90;;;;;;5021236;28;20044;-71
2021/03/05 07:07:03;;;;;;;25.63;12.75;;;2.80;99.90;;;;;;5026834;28;20036;-71
2021/03/05 07:09:54;;;;;;;33.47;14.82;;;2.90;99.90;;;;;;5020439;28;20350;-71
2021/03/05 07:12:59;;;;;;;26.98;13.40;;;2.80;99.90;;;;;;5028929;28;20049;-72
2021/03/05 07:15:56;;;;;;;29.00;12.93;;;2.90;99.90;;;;;;5026275;28;20057;-71
2021/03/05 07:18:41;;;;;;;26.67;12.40;;;3.00;99.90;;;;;;5024029;28;20053;-71
2021/03/05 07:21:25;;;;;;;29.42;13.65;;;3.00;99.90;;;;;;5028762;28;20057;-71
2021/03/05 07:24:12;;;;;;;25.40;11.60;;;3.00;99.90;;;;;;5023728;28;20691;-71
2021/03/05 07:27:00;;;;;;;27.42;12.98;;;3.00;99.90;;;;;;5021953;28;20044;-71
2021/03/05 07:29:46;;;;;;;24.98;12.20;;;3.00;99.90;;;;;;5023945;28;20544;-71
2021/03/05 07:32:47;;;;;;;22.23;12.02;;;3.00;99.90;;;;;;5024533;28;20076;-71
2021/03/05 07:35:35;;;;;;;21.38;10.88;;;3.00;99.90;;;;;;5021553;28;20087;-71
2021/03/05 07:38:23;;;;;;;20.52;10.75;;;3.10;99.90;;;;;;5030586;28;20106;-71
2021/03/05 07:41:08;;;;;;;28.35;11.75;;;2.90;99.90;;;;;;5024355;28;20065;-71
2021/03/05 07:43:53;;;;;;;21.23;11.30;;;3.00;99.90;;;;;;5025341;28;20057;-71
2021/03/05 07:46:39;;;;;;;19.67;9.82;;;2.90;99.90;;;;;;5034129;28;20239;-71
2021/03/05 07:49:29;;;;;;;19.98;9.90;;;2.90;99.90;;;;;;5029064;28;20052;-71
2021/03/05 07:52:14;;;;;;;20.75;9.98;;;3.00;99.90;;;;;;5029317;28;20088;-71
2021/03/05 07:54:58;;;;;;;18.80;9.77;;;3.10;99.90;;;;;;5030457;28;20045;-71
2021/03/05 07:57:46;;;;;;;24.15;9.68;;;3.00;99.90;;;;;;5026545;28;20716;-71
2021/03/05 08:00:50;;;;;;;24.67;10.68;;;3.00;99.90;;;;;;5029999;28;20146;-71
2021/03/05 08:03:54;;;;;;;23.27;10.25;;;3.00;99.90;;;;;;5025528;28;20598;-71
2021/03/05 08:06:40;;;;;;;;;;;2.90;99.90;;;;;;5021899;28;20112;-71
2021/03/05 08:09:35;;;;;;;18.20;9.20;;;3.00;99.90;;;;;;5029572;28;19939;-71
2021/03/05 08:15:18;;;;;;;20.95;10.25;;;2.80;99.90;;;;;;5022029;28;20117;-71
2021/03/05 08:18:18;;;;;;;21.90;9.50;;;2.80;99.90;;;;;;5025814;28;20076;-71
2021/03/05 08:21:02;;;;;;;19.80;9.20;;;2.90;99.90;;;;;;5022466;28;20052;-71
2021/03/05 08:24:26;;;;;;;22.40;10.02;;;3.00;99.90;;;;;;5017366;28;20088;-71
2021/03/05 08:27:14;;;;;;;19.70;9.40;;;3.00;99.90;;;;;;5016066;28;20079;-71
2021/03/05 08:30:11;;;;;;;20.83;9.77;;;3.20;99.90;;;;;;5019097;28;20326;-71
2021/03/05 08:33:00;;;;;;;21.35;9.68;;;3.40;99.90;;;;;;5023724;28;20040;-72
2021/03/05 08:35:45;;;;;;;19.13;9.23;;;3.50;99.90;;;;;;5021646;28;20044;-71
2021/03/05 08:38:36;;;;;;;24.95;10.15;;;3.40;99.90;;;;;;5019066;28;20045;-71
2021/03/05 08:41:25;;;;;;;25.00;10.48;;;3.50;99.90;;;;;;5021870;28;20044;-71
2021/03/05 08:44:10;;;;;;;21.40;9.90;;;3.60;99.90;;;;;;5020573;28;20368;-71
2021/03/05 08:47:06;;;;;;;25.58;10.30;;;3.90;99.90;;;;;;5017474;28;20049;-71
2021/03/05 08:49:51;;;;;;;24.73;10.50;;;3.80;99.90;;;;;;5022530;28;20044;-72
2021/03/05 08:52:35;;;;;;;26.60;10.82;;;3.80;99.90;;;;;;5020802;28;20632;-71
2021/03/05 08:55:21;;;;;;;23.33;11.50;;;3.90;99.90;;;;;;5027198;28;20513;-71
2021/03/05 08:58:06;;;;;;;25.30;11.73;;;3.90;99.90;;;;;;5027499;28;20123;-72
2021/03/05 09:00:50;;;;;;;27.23;11.52;;;4.00;99.90;;;;;;5021587;28;20045;-71
2021/03/05 09:03:34;;;;;;;29.13;13.75;;;4.00;99.90;;;;;;5028284;28;20140;-71
2021/03/05 09:06:19;;;;;;;23.45;11.07;;;3.70;99.90;;;;;;5022990;28;20112;-71
2021/03/05 09:09:11;;;;;;;26.67;11.73;;;4.10;99.90;;;;;;5022358;28;20056;-71
2021/03/05 09:12:14;;;;;;;26.83;11.80;;;4.50;99.90;;;;;;5021527;28;20049;-71
2021/03/05 09:15:02;;;;;;;23.73;11.93;;;4.60;99.90;;;;;;5029997;28;20518;-71
2021/03/05 09:17:46;;;;;;;25.38;11.32;;;4.80;99.90;;;;;;5016220;28;20312;-71
2021/03/05 09:20:43;;;;;;;23.17;11.43;;;4.90;99.90;;;;;;5025308;28;20186;-71
2021/03/05 09:23:42;;;;;;;23.83;11.57;;;5.00;99.90;;;;;;5026010;28;20067;-72
2021/03/05 09:26:27;;;;;;;21.77;12.13;;;4.70;99.90;;;;;;5030794;28;20407;-71
2021/03/05 09:29:28;;;;;;;26.50;11.95;;;4.50;99.90;;;;;;5025090;28;20088;-71
2021/03/05 09:32:12;;;;;;;28.98;12.57;;;4.50;99.90;;;;;;5020780;28;20080;-71
2021/03/05 09:34:59;;;;;;;21.95;12.07;;;4.20;99.90;;;;;;5024408;28;20061;-71
2021/03/05 09:37:43;;;;;;;29.55;13.05;;;4.10;99.90;;;;;;5019663;28;20115;-71
2021/03/05 09:40:28;;;;;;;29.02;11.57;;;4.30;99.90;;;;;;5024142;28;20411;-71
2021/03/05 09:43:14;;;;;;;25.75;11.88;;;4.40;99.90;;;;;;5022079;28;20192;-71
2021/03/05 09:45:59;;;;;;;26.42;11.80;;;4.80;99.90;;;;;;5022909;28;20087;-72
2021/03/05 09:48:43;;;;;;;26.90;12.48;;;4.70;99.90;;;;;;5024096;28;20052;-71
2021/03/05 09:51:37;;;;;;;28.15;12.90;;;4.60;99.90;;;;;;5022766;28;20522;-72
2021/03/05 09:54:39;;;;;;;26.52;11.18;;;4.60;99.90;;;;;;5025516;28;20052;-72
2021/03/05 09:57:25;;;;;;;22.50;12.38;;;4.90;99.90;;;;;;5026189;28;20095;-72
2021/03/05 10:00:09;;;;;;;25.08;11.35;;;5.10;99.90;;;;;;5021434;28;20294;-72
2021/03/05 10:03:07;;;;;;;24.10;12.23;;;5.10;99.90;;;;;;5021760;28;20125;-72
2021/03/05 10:05:52;;;;;;;23.33;12.40;;;4.80;99.90;;;;;;5022761;28;20162;-72
2021/03/05 10:08:37;;;;;;;21.95;12.30;;;4.80;99.90;;;;;;5016171;28;20068;-73
2021/03/05 10:11:30;;;;;;;26.90;12.82;;;4.70;99.90;;;;;;5025000;28;20076;-73
2021/03/05 10:14:21;;;;;;;27.65;12.50;;;4.80;99.90;;;;;;5022386;28;20120;-72
2021/03/05 10:17:13;;;;;;;30.60;12.45;;;5.20;99.90;;;;;;5020253;28;20047;-72
2021/03/05 10:20:03;;;;;;;25.83;12.20;;;5.20;99.90;;;;;;5025976;28;20047;-71
2021/03/05 10:22:51;;;;;;;24.45;11.98;;;5.20;99.90;;;;;;5020121;28;20073;-72
2021/03/05 10:25:35;;;;;;;28.38;11.73;;;5.00;99.90;;;;;;5022043;28;20106;-72
2021/03/05 10:28:28;;;;;;;22.83;11.13;;;5.00;99.90;;;;;;5026641;28;20184;-72
2021/03/05 10:31:12;;;;;;;22.90;11.52;;;5.00;99.90;;;;;;5028136;28;20048;-72
2021/03/05 10:33:56;;;;;;;24.27;12.13;;;4.80;99.90;;;;;;5020633;28;20048;-72
2021/03/05 10:36:41;;;;;;;23.92;11.07;;;4.40;99.90;;;;;;5021980;28;20056;-72
2021/03/05 10:39:28;;;;;;;24.77;12.40;;;4.20;99.90;;;;;;5021530;28;20052;-72
2021/03/05 10:42:17;;;;;;;21.70;11.95;;;4.00;99.90;;;;;;5023206;28;20095;-71
2021/03/05 10:45:04;;;;;;;22.05;11.55;;;4.00;99.90;;;;;;5020187;28;20036;-72
2021/03/05 10:47:49;;;;;;;25.35;11.07;;;4.10;99.90;;;;;;5021385;28;20804;-71
2021/03/05 10:50:33;;;;;;;21.48;11.27;;;4.10;99.90;;;;;;5021203;28;20048;-72
2021/03/05 10:53:17;;;;;;;25.63;12.27;;;4.10;99.90;;;;;;5024269;28;20065;-72
2021/03/05 10:56:01;;;;;;;24.00;10.73;;;4.10;99.90;;;;;;5018743;28;20095;-71
2021/03/05 10:58:45;;;;;;;23.73;11.25;;;4.20;99.90;;;;;;5016405;28;20055;-71
2021/03/05 11:01:29;;;;;;;22.73;11.43;;;4.30;99.90;;;;;;5020414;28;20518;-71
2021/03/05 11:04:14;;;;;;;23.40;11.63;;;4.50;99.90;;;;;;5018636;28;20517;-72
2021/03/05 11:06:59;;;;;;;18.33;10.70;;;4.80;99.90;;;;;;5018966;28;20411;-72
2021/03/05 11:09:43;;;;;;;22.70;10.55;;;4.90;99.90;;;;;;5015375;28;20058;-72
2021/03/05 11:12:27;;;;;;;27.73;11.70;;;5.10;99.90;;;;;;5019952;28;20107;-72
2021/03/05 11:15:11;;;;;;;24.85;11.18;;;5.10;99.90;;;;;;5019716;28;20145;-71
2021/03/05 11:17:56;;;;;;;23.67;11.90;;;4.90;99.90;;;;;;5020660;28;20049;-71
2021/03/05 11:20:40;;;;;;;21.25;9.70;;;5.20;99.90;;;;;;5021794;28;20456;-71
2021/03/05 11:23:24;;;;;;;24.13;11.95;;;5.60;99.90;;;;;;5021769;28;20720;-70
2021/03/05 11:26:08;;;;;;;20.80;10.63;;;5.30;99.90;;;;;;5022297;28;20052;-70
2021/03/05 11:28:53;;;;;;;18.40;10.77;;;5.10;99.90;;;;;;5020911;28;20474;-71
2021/03/05 11:31:37;;;;;;;24.33;11.50;;;5.10;99.90;;;;;;5022605;28;20060;-71
2021/03/05 11:34:22;;;;;;;26.45;13.38;;;5.00;99.90;;;;;;5019292;28;20589;-70
2021/03/05 11:37:06;;;;;;;26.45;11.45;;;5.00;99.90;;;;;;5019472;28;20517;-71
2021/03/05 11:39:50;;;;;;;25.30;11.95;;;5.00;99.90;;;;;;5022633;28;20553;-70
2021/03/05 11:42:34;;;;;;;26.17;12.52;;;5.10;99.90;;;;;;5018766;28;20124;-71
2021/03/05 11:45:19;;;;;;;20.27;10.80;;;5.00;99.90;;;;;;5020375;28;20057;-71
2021/03/05 11:48:03;;;;;;;29.77;11.82;;;5.00;99.90;;;;;;5022615;28;20053;-70
2021/03/05 11:50:48;;;;;;;21.42;10.73;;;4.90;99.90;;;;;;5017048;28;20089;-70
2021/03/05 11:53:32;;;;;;;23.05;10.77;;;5.00;99.90;;;;;;5016278;28;20107;-70
2021/03/05 11:56:16;;;;;;;24.13;10.85;;;4.80;99.90;;;;;;5019876;28;20048;-70
2021/03/05 11:59:01;;;;;;;21.80;8.90;;;4.50;99.90;;;;;;5022663;28;20045;-70
2021/03/05 12:01:46;;;;;;;18.33;8.95;;;4.20;99.90;;;;;;5028372;28;20441;-70
2021/03/05 12:04:30;;;;;;;17.48;9.38;;;4.20;99.90;;;;;;5019918;28;20048;-70
2021/03/05 12:07:14;;;;;;;18.48;8.45;;;4.00;99.90;;;;;;5024975;28;20087;-70
2021/03/05 12:09:58;;;;;;;19.45;9.07;;;3.90;99.90;;;;;;5024413;28;20104;-72
2021/03/05 12:12:42;;;;;;;16.75;8.98;;;3.80;99.90;;;;;;5021891;28;20068;-71
2021/03/05 12:15:26;;;;;;;16.38;8.73;;;4.00;99.90;;;;;;5025045;28;20096;-72
2021/03/05 12:18:11;;;;;;;15.73;8.38;;;4.00;99.90;;;;;;5021767;28;20379;-71
2021/03/05 12:20:55;;;;;;;16.10;8.32;;;4.10;99.90;;;;;;5019974;28;20514;-71
2021/03/05 12:23:39;;;;;;;16.40;8.55;;;4.30;99.90;;;;;;5022716;28;20087;-70
2021/03/05 12:26:24;;;;;;;15.35;7.35;;;4.50;99.90;;;;;;5024108;28;20051;-71
2021/03/05 12:29:08;;;;;;;17.10;8.60;;;4.60;99.90;;;;;;5021539;28;20044;-71
2021/03/05 12:31:53;;;;;;;14.52;8.05;;;4.80;99.90;;;;;;5020399;28;20048;-71
2021/03/05 12:34:37;;;;;;;13.63;8.10;;;5.00;99.90;;;;;;5021229;28;20526;-71
2021/03/05 12:37:21;;;;;;;14.02;8.68;;;5.00;99.90;;;;;;5021110;28;20152;-71
2021/03/05 12:40:07;;;;;;;15.27;8.30;;;5.30;99.90;;;;;;5023521;28;20069;-71
2021/03/05 12:42:55;;;;;;;15.13;8.40;;;5.10;99.90;;;;;;5020464;28;20479;-70
2021/03/05 12:45:39;;;;;;;13.05;7.93;;;5.20;99.90;;;;;;5024867;28;20103;-71
2021/03/05 12:48:24;;;;;;;12.75;7.82;;;5.40;99.90;;;;;;5015022;28;20068;-71
2021/03/05 12:51:08;;;;;;;12.65;7.32;;;5.70;99.90;;;;;;5020999;28;20111;-72
2021/03/05 12:53:52;;;;;;;12.88;8.18;;;6.10;99.90;;;;;;5021428;28;20052;-72
2021/03/05 12:56:36;;;;;;;14.52;8.18;;;6.20;99.90;;;;;;5026141;28;20091;-72
2021/03/05 12:59:20;;;;;;;16.23;9.15;;;6.20;99.90;;;;;;5018413;28;20560;-71
2021/03/05 13:02:04;;;;;;;15.10;8.27;;;6.10;99.90;;;;;;5020919;28;20036;-70
2021/03/05 13:04:49;;;;;;;15.15;8.05;;;6.30;99.90;;;;;;5020636;28;20080;-73
2021/03/05 13:07:33;;;;;;;11.98;7.70;;;6.80;99.90;;;;;;5017403;28;20469;-72
2021/03/05 13:10:17;;;;;;;12.48;7.55;;;7.40;99.90;;;;;;5019386;28;20064;-72
2021/03/05 13:13:01;;;;;;;13.82;8.30;;;7.30;99.90;;;;;;5026868;28;20428;-72
2021/03/05 13:15:46;;;;;;;11.45;7.57;;;6.80;99.90;;;;;;5018689;28;20100;-72
2021/03/05 13:18:30;;;;;;;10.60;6.97;;;6.10;99.90;;;;;;5022188;28;20052;-72
2021/03/05 13:21:15;;;;;;;12.45;7.57;;;6.00;99.90;;;;;;5019085;28;20041;-71
2021/03/05 13:23:59;;;;;;;14.43;8.48;;;5.80;99.90;;;;;;5027782;28;20060;-72
2021/03/05 13:26:44;;;;;;;11.68;7.38;;;5.40;99.90;;;;;;5021358;28;20433;-71
2021/03/05 13:29:28;;;;;;;12.38;7.63;;;5.30;99.90;;;;;;5039567;28;20045;-72
2021/03/05 13:32:12;;;;;;;12.07;7.47;;;5.10;99.90;;;;;;5026557;28;20049;-72
2021/03/05 13:34:56;;;;;;;12.30;7.57;;;5.20;99.90;;;;;;5013550;28;20064;-72
2021/03/05 13:37:40;;;;;;;12.60;7.65;;;5.00;99.90;;;;;;5023928;28;20048;-72
2021/03/05 13:40:25;;;;;;;13.88;7.63;;;5.00;99.90;;;;;;5020659;28;20035;-72
2021/03/05 13:43:09;;;;;;;11.85;7.25;;;5.20;99.90;;;;;;5021522;28;20164;-72
2021/03/05 13:45:54;;;;;;;12.75;7.22;;;5.10;99.90;;;;;;5016490;28;20171;-72
2021/03/05 13:48:41;;;;;;;12.70;7.18;;;5.20;99.90;;;;;;5024045;28;20175;-72
2021/03/05 13:51:25;;;;;;;11.43;7.25;;;5.10;99.90;;;;;;5020525;28;20044;-72
2021/03/05 13:54:10;;;;;;;14.25;6.85;;;5.10;99.90;;;;;;5027533;28;20056;-73
2021/03/05 13:56:54;;;;;;;10.80;7.38;;;5.10;99.90;;;;;;5027535;28;20125;-72
2021/03/05 13:59:38;;;;;;;10.52;7.40;;;5.30;99.90;;;;;;5021121;28;20045;-72
2021/03/05 14:02:22;;;;;;;11.45;7.72;;;5.40;99.90;;;;;;5023386;28;20048;-72
2021/03/05 14:05:07;;;;;;;15.23;7.38;;;5.00;99.90;;;;;;5023369;28;20521;-72
2021/03/05 14:07:51;;;;;;;12.20;7.50;;;5.00;99.90;;;;;;5020209;28;20409;-73
2021/03/05 14:10:35;;;;;;;12.98;8.02;;;4.90;99.90;;;;;;5019578;28;20103;-72
2021/03/05 14:13:20;;;;;;;10.80;6.75;;;5.00;99.90;;;;;;5020029;28;20557;-72
2021/03/05 14:16:05;;;;;;;12.23;6.35;;;5.10;99.90;;;;;;5017976;28;20068;-72
2021/03/05 14:18:49;;;;;;;10.65;6.45;;;5.20;99.90;;;;;;5020051;28;20356;-72
2021/03/05 14:21:33;;;;;;;9.15;5.68;;;5.30;99.90;;;;;;5021250;28;20417;-72